sensor_id;sensor_type;location;lat;lon;timestamp;temperature;humidity
16032;DHT22;8120;48.308;8.914;2022-07-29T00:01:41;17.10;83.30
16032;DHT22;8120;48.308;8.914;2022-07-29T00:04:09;17.10;80.00
16032;DHT22;8120;48.308;8.914;2022-07-29T00:06:38;17.40;80.50
16032;DHT22;8120;48.308;8.914;2022-07-29T00:09:06;17.10;82.50
16032;DHT22;8120;48.308;8.914;2022-07-29T00:11:34;16.80;84.80
16032;DHT22;8120;48.308;8.914;2022-07-29T00:14:02;16.60;86.10
16032;DHT22;8120;48.308;8.914;2022-07-29T00:16:30;16.50;85.80
16032;DHT22;8120;48.308;8.914;2022-07-29T00:18:58;16.40;85.70
16032;DHT22;8120;48.308;8.914;2022-07-29T00:21:28;16.30;86.30
16032;DHT22;8120;48.308;8.914;2022-07-29T00:23:57;16.30;87.80
16032;DHT22;8120;48.308;8.914;2022-07-29T00:26:25;16.40;85.90
16032;DHT22;8120;48.308;8.914;2022-07-29T00:28:58;16.50;85.40
16032;DHT22;8120;48.308;8.914;2022-07-29T00:31:46;16.60;80.70
16032;DHT22;8120;48.308;8.914;2022-07-29T00:34:14;16.80;81.80
16032;DHT22;8120;48.308;8.914;2022-07-29T00:36:56;16.80;81.70
16032;DHT22;8120;48.308;8.914;2022-07-29T00:39:25;16.80;80.90
16032;DHT22;8120;48.308;8.914;2022-07-29T00:41:54;16.60;84.20
16032;DHT22;8120;48.308;8.914;2022-07-29T00:44:22;16.50;83.00
16032;DHT22;8120;48.308;8.914;2022-07-29T00:46:50;16.50;83.40
16032;DHT22;8120;48.308;8.914;2022-07-29T00:49:18;16.30;84.10
16032;DHT22;8120;48.308;8.914;2022-07-29T00:51:46;16.30;84.70
16032;DHT22;8120;48.308;8.914;2022-07-29T00:54:15;16.30;83.10
16032;DHT22;8120;48.308;8.914;2022-07-29T00:56:44;16.40;82.70
16032;DHT22;8120;48.308;8.914;2022-07-29T00:59:12;16.30;83.40
16032;DHT22;8120;48.308;8.914;2022-07-29T01:01:40;16.20;84.10
16032;DHT22;8120;48.308;8.914;2022-07-29T01:04:08;16.30;82.70
16032;DHT22;8120;48.308;8.914;2022-07-29T01:06:36;16.50;80.50
16032;DHT22;8120;48.308;8.914;2022-07-29T01:09:04;16.50;80.10
16032;DHT22;8120;48.308;8.914;2022-07-29T01:11:33;16.40;81.10
16032;DHT22;8120;48.308;8.914;2022-07-29T01:14:05;16.30;81.10
16032;DHT22;8120;48.308;8.914;2022-07-29T01:16:39;16.30;82.50
16032;DHT22;8120;48.308;8.914;2022-07-29T01:19:19;16.40;81.50
16032;DHT22;8120;48.308;8.914;2022-07-29T01:21:53;16.40;81.50
16032;DHT22;8120;48.308;8.914;2022-07-29T01:24:33;16.50;81.20
16032;DHT22;8120;48.308;8.914;2022-07-29T01:27:18;16.70;80.40
16032;DHT22;8120;48.308;8.914;2022-07-29T01:29:56;16.40;81.30
16032;DHT22;8120;48.308;8.914;2022-07-29T01:32:26;16.30;82.50
16032;DHT22;8120;48.308;8.914;2022-07-29T01:34:58;16.50;80.40
16032;DHT22;8120;48.308;8.914;2022-07-29T01:37:32;16.50;79.80
16032;DHT22;8120;48.308;8.914;2022-07-29T01:40:04;16.50;80.70
16032;DHT22;8120;48.308;8.914;2022-07-29T01:42:39;16.50;81.30
16032;DHT22;8120;48.308;8.914;2022-07-29T01:45:15;16.50;81.00
16032;DHT22;8120;48.308;8.914;2022-07-29T01:47:50;16.60;80.50
16032;DHT22;8120;48.308;8.914;2022-07-29T01:50:26;16.40;82.60
16032;DHT22;8120;48.308;8.914;2022-07-29T01:52:58;16.20;83.70
16032;DHT22;8120;48.308;8.914;2022-07-29T01:55:29;16.20;84.30
16032;DHT22;8120;48.308;8.914;2022-07-29T01:57:59;16.20;84.10
16032;DHT22;8120;48.308;8.914;2022-07-29T02:00:30;16.30;82.50
16032;DHT22;8120;48.308;8.914;2022-07-29T02:03:00;16.30;83.00
16032;DHT22;8120;48.308;8.914;2022-07-29T02:05:30;16.20;83.60
16032;DHT22;8120;48.308;8.914;2022-07-29T02:08:01;16.10;84.70
16032;DHT22;8120;48.308;8.914;2022-07-29T02:10:32;16.10;84.20
16032;DHT22;8120;48.308;8.914;2022-07-29T02:13:02;16.30;82.00
16032;DHT22;8120;48.308;8.914;2022-07-29T02:15:33;16.40;81.80
16032;DHT22;8120;48.308;8.914;2022-07-29T02:18:05;16.40;81.50
16032;DHT22;8120;48.308;8.914;2022-07-29T02:20:34;16.20;83.30
16032;DHT22;8120;48.308;8.914;2022-07-29T02:23:04;16.10;84.10
16032;DHT22;8120;48.308;8.914;2022-07-29T02:25:34;15.90;86.30
16032;DHT22;8120;48.308;8.914;2022-07-29T02:28:05;15.80;85.60
16032;DHT22;8120;48.308;8.914;2022-07-29T02:30:36;15.90;85.30
16032;DHT22;8120;48.308;8.914;2022-07-29T02:33:04;15.80;85.10
16032;DHT22;8120;48.308;8.914;2022-07-29T02:35:33;15.60;86.40
16032;DHT22;8120;48.308;8.914;2022-07-29T02:38:02;15.60;85.50
16032;DHT22;8120;48.308;8.914;2022-07-29T02:40:48;15.40;87.00
16032;DHT22;8120;48.308;8.914;2022-07-29T02:43:19;15.40;88.30
16032;DHT22;8120;48.308;8.914;2022-07-29T02:45:51;15.40;88.60
16032;DHT22;8120;48.308;8.914;2022-07-29T02:48:25;15.30;89.20
16032;DHT22;8120;48.308;8.914;2022-07-29T02:51:01;15.40;89.20
16032;DHT22;8120;48.308;8.914;2022-07-29T02:53:33;15.30;89.20
16032;DHT22;8120;48.308;8.914;2022-07-29T02:56:06;15.20;90.00
16032;DHT22;8120;48.308;8.914;2022-07-29T02:58:38;15.30;89.70
16032;DHT22;8120;48.308;8.914;2022-07-29T03:01:13;15.40;89.20
16032;DHT22;8120;48.308;8.914;2022-07-29T03:03:49;15.30;89.40
16032;DHT22;8120;48.308;8.914;2022-07-29T03:06:19;15.20;90.60
16032;DHT22;8120;48.308;8.914;2022-07-29T03:09:06;15.10;91.10
16032;DHT22;8120;48.308;8.914;2022-07-29T03:11:39;15.10;91.30
16032;DHT22;8120;48.308;8.914;2022-07-29T03:14:17;15.30;92.70
16032;DHT22;8120;48.308;8.914;2022-07-29T03:16:48;15.80;87.40
16032;DHT22;8120;48.308;8.914;2022-07-29T03:19:16;15.80;83.00
16032;DHT22;8120;48.308;8.914;2022-07-29T03:21:44;15.40;86.40
16032;DHT22;8120;48.308;8.914;2022-07-29T03:24:28;15.30;89.10
16032;DHT22;8120;48.308;8.914;2022-07-29T03:26:56;15.80;86.20
16032;DHT22;8120;48.308;8.914;2022-07-29T03:29:25;16.80;78.90
16032;DHT22;8120;48.308;8.914;2022-07-29T03:32:02;16.90;79.00
16032;DHT22;8120;48.308;8.914;2022-07-29T03:34:35;17.40;76.50
16032;DHT22;8120;48.308;8.914;2022-07-29T03:37:03;17.90;72.20
16032;DHT22;8120;48.308;8.914;2022-07-29T03:39:36;17.90;73.60
16032;DHT22;8120;48.308;8.914;2022-07-29T03:42:06;17.70;74.10
16032;DHT22;8120;48.308;8.914;2022-07-29T03:44:36;17.00;76.10
16032;DHT22;8120;48.308;8.914;2022-07-29T03:47:06;16.70;76.30
16032;DHT22;8120;48.308;8.914;2022-07-29T03:49:37;16.30;78.20
16032;DHT22;8120;48.308;8.914;2022-07-29T03:52:06;16.20;82.70
16032;DHT22;8120;48.308;8.914;2022-07-29T03:54:34;16.50;79.50
16032;DHT22;8120;48.308;8.914;2022-07-29T03:57:04;16.40;77.70
16032;DHT22;8120;48.308;8.914;2022-07-29T03:59:33;16.10;80.50
16032;DHT22;8120;48.308;8.914;2022-07-29T04:02:03;17.20;76.00
16032;DHT22;8120;48.308;8.914;2022-07-29T04:04:34;16.60;78.40
16032;DHT22;8120;48.308;8.914;2022-07-29T04:07:03;16.40;79.10
16032;DHT22;8120;48.308;8.914;2022-07-29T04:09:31;16.40;78.30
16032;DHT22;8120;48.308;8.914;2022-07-29T04:11:59;16.30;78.50
16032;DHT22;8120;48.308;8.914;2022-07-29T04:14:31;16.00;80.10
16032;DHT22;8120;48.308;8.914;2022-07-29T04:16:59;15.50;83.30
16032;DHT22;8120;48.308;8.914;2022-07-29T04:19:27;15.20;85.10
16032;DHT22;8120;48.308;8.914;2022-07-29T04:21:57;14.90;86.60
16032;DHT22;8120;48.308;8.914;2022-07-29T04:24:25;15.00;86.10
16032;DHT22;8120;48.308;8.914;2022-07-29T04:26:54;15.20;85.60
16032;DHT22;8120;48.308;8.914;2022-07-29T04:29:21;15.50;85.00
16032;DHT22;8120;48.308;8.914;2022-07-29T04:31:49;16.10;83.00
16032;DHT22;8120;48.308;8.914;2022-07-29T04:34:17;16.60;79.10
16032;DHT22;8120;48.308;8.914;2022-07-29T04:36:46;17.00;76.40
16032;DHT22;8120;48.308;8.914;2022-07-29T04:39:15;17.10;76.40
16032;DHT22;8120;48.308;8.914;2022-07-29T04:41:49;17.40;75.70
16032;DHT22;8120;48.308;8.914;2022-07-29T04:44:20;17.60;74.00
16032;DHT22;8120;48.308;8.914;2022-07-29T04:46:54;17.50;74.70
16032;DHT22;8120;48.308;8.914;2022-07-29T04:49:23;17.10;76.00
16032;DHT22;8120;48.308;8.914;2022-07-29T04:51:51;16.70;77.90
16032;DHT22;8120;48.308;8.914;2022-07-29T04:54:20;16.30;79.40
16032;DHT22;8120;48.308;8.914;2022-07-29T04:56:48;16.20;80.60
16032;DHT22;8120;48.308;8.914;2022-07-29T04:59:16;16.20;80.40
16032;DHT22;8120;48.308;8.914;2022-07-29T05:01:44;16.20;80.30
16032;DHT22;8120;48.308;8.914;2022-07-29T05:04:12;16.00;82.10
16032;DHT22;8120;48.308;8.914;2022-07-29T05:06:41;16.00;83.30
16032;DHT22;8120;48.308;8.914;2022-07-29T05:09:08;16.10;82.50
16032;DHT22;8120;48.308;8.914;2022-07-29T05:11:38;16.00;83.10
16032;DHT22;8120;48.308;8.914;2022-07-29T05:14:05;16.20;82.10
16032;DHT22;8120;48.308;8.914;2022-07-29T05:16:33;17.20;77.50
16032;DHT22;8120;48.308;8.914;2022-07-29T05:19:01;16.90;78.40
16032;DHT22;8120;48.308;8.914;2022-07-29T05:21:29;16.90;80.50
16032;DHT22;8120;48.308;8.914;2022-07-29T05:23:57;17.60;78.90
16032;DHT22;8120;48.308;8.914;2022-07-29T05:26:25;19.20;72.10
16032;DHT22;8120;48.308;8.914;2022-07-29T05:28:54;19.90;69.30
16032;DHT22;8120;48.308;8.914;2022-07-29T05:31:23;20.00;67.60
16032;DHT22;8120;48.308;8.914;2022-07-29T05:33:51;20.00;67.60
16032;DHT22;8120;48.308;8.914;2022-07-29T05:36:19;19.70;68.90
16032;DHT22;8120;48.308;8.914;2022-07-29T05:38:47;19.10;70.90
16032;DHT22;8120;48.308;8.914;2022-07-29T05:41:15;18.80;73.20
16032;DHT22;8120;48.308;8.914;2022-07-29T05:43:43;18.70;73.90
16032;DHT22;8120;48.308;8.914;2022-07-29T05:46:12;18.80;74.00
16032;DHT22;8120;48.308;8.914;2022-07-29T05:48:40;18.70;74.50
16032;DHT22;8120;48.308;8.914;2022-07-29T05:51:08;18.60;74.60
16032;DHT22;8120;48.308;8.914;2022-07-29T05:53:36;18.50;75.30
16032;DHT22;8120;48.308;8.914;2022-07-29T05:56:05;18.50;76.20
16032;DHT22;8120;48.308;8.914;2022-07-29T05:58:33;18.70;74.70
16032;DHT22;8120;48.308;8.914;2022-07-29T06:01:02;19.40;71.80
16032;DHT22;8120;48.308;8.914;2022-07-29T06:03:32;20.10;69.10
16032;DHT22;8120;48.308;8.914;2022-07-29T06:06:01;20.40;68.70
16032;DHT22;8120;48.308;8.914;2022-07-29T06:08:29;20.60;67.00
16032;DHT22;8120;48.308;8.914;2022-07-29T06:10:56;20.60;67.30
16032;DHT22;8120;48.308;8.914;2022-07-29T06:13:24;20.60;66.20
16032;DHT22;8120;48.308;8.914;2022-07-29T06:15:52;20.80;66.10
16032;DHT22;8120;48.308;8.914;2022-07-29T06:18:20;21.00;65.90
16032;DHT22;8120;48.308;8.914;2022-07-29T06:20:51;21.00;66.60
16032;DHT22;8120;48.308;8.914;2022-07-29T06:23:20;21.40;64.30
16032;DHT22;8120;48.308;8.914;2022-07-29T06:25:49;21.70;63.10
16032;DHT22;8120;48.308;8.914;2022-07-29T06:28:16;22.30;61.10
16032;DHT22;8120;48.308;8.914;2022-07-29T06:30:44;22.60;58.20
16032;DHT22;8120;48.308;8.914;2022-07-29T06:33:16;22.90;58.90
16032;DHT22;8120;48.308;8.914;2022-07-29T06:35:44;22.50;60.30
16032;DHT22;8120;48.308;8.914;2022-07-29T06:38:21;23.00;58.40
16032;DHT22;8120;48.308;8.914;2022-07-29T06:41:00;23.30;56.30
16032;DHT22;8120;48.308;8.914;2022-07-29T06:43:30;23.60;56.80
16032;DHT22;8120;48.308;8.914;2022-07-29T06:46:01;23.90;55.90
16032;DHT22;8120;48.308;8.914;2022-07-29T06:48:29;23.60;56.80
16032;DHT22;8120;48.308;8.914;2022-07-29T06:50:57;23.40;56.10
16032;DHT22;8120;48.308;8.914;2022-07-29T06:53:27;23.20;57.80
16032;DHT22;8120;48.308;8.914;2022-07-29T06:55:55;23.30;57.20
16032;DHT22;8120;48.308;8.914;2022-07-29T06:58:24;22.70;58.00
16032;DHT22;8120;48.308;8.914;2022-07-29T07:00:52;22.50;59.10
16032;DHT22;8120;48.308;8.914;2022-07-29T07:03:21;22.90;58.60
16032;DHT22;8120;48.308;8.914;2022-07-29T07:05:49;22.80;58.60
16032;DHT22;8120;48.308;8.914;2022-07-29T07:08:17;22.80;58.50
16032;DHT22;8120;48.308;8.914;2022-07-29T07:10:47;22.70;59.00
16032;DHT22;8120;48.308;8.914;2022-07-29T07:13:15;22.70;60.10
16032;DHT22;8120;48.308;8.914;2022-07-29T07:15:44;22.90;59.20
16032;DHT22;8120;48.308;8.914;2022-07-29T07:18:14;23.20;57.40
16032;DHT22;8120;48.308;8.914;2022-07-29T07:20:43;23.30;58.10
16032;DHT22;8120;48.308;8.914;2022-07-29T07:23:10;22.80;58.30
16032;DHT22;8120;48.308;8.914;2022-07-29T07:25:38;22.90;59.70
16032;DHT22;8120;48.308;8.914;2022-07-29T07:28:08;23.20;57.90
16032;DHT22;8120;48.308;8.914;2022-07-29T07:30:36;23.50;59.00
16032;DHT22;8120;48.308;8.914;2022-07-29T07:33:04;23.80;57.00
16032;DHT22;8120;48.308;8.914;2022-07-29T07:35:32;23.80;56.20
16032;DHT22;8120;48.308;8.914;2022-07-29T07:38:00;24.20;55.90
16032;DHT22;8120;48.308;8.914;2022-07-29T07:40:28;24.20;56.60
16032;DHT22;8120;48.308;8.914;2022-07-29T07:42:55;24.30;56.20
16032;DHT22;8120;48.308;8.914;2022-07-29T07:45:26;24.60;56.70
16032;DHT22;8120;48.308;8.914;2022-07-29T07:47:54;24.40;55.10
16032;DHT22;8120;48.308;8.914;2022-07-29T07:50:22;24.50;55.50
16032;DHT22;8120;48.308;8.914;2022-07-29T07:52:51;24.50;53.90
16032;DHT22;8120;48.308;8.914;2022-07-29T07:55:20;24.40;55.50
16032;DHT22;8120;48.308;8.914;2022-07-29T07:57:48;25.00;52.60
16032;DHT22;8120;48.308;8.914;2022-07-29T08:00:17;25.20;52.00
16032;DHT22;8120;48.308;8.914;2022-07-29T08:02:50;25.10;50.60
16032;DHT22;8120;48.308;8.914;2022-07-29T08:05:19;24.60;52.50
16032;DHT22;8120;48.308;8.914;2022-07-29T08:07:47;25.10;50.80
16032;DHT22;8120;48.308;8.914;2022-07-29T08:10:17;25.60;51.70
16032;DHT22;8120;48.308;8.914;2022-07-29T08:13:07;26.20;48.80
16032;DHT22;8120;48.308;8.914;2022-07-29T08:15:35;26.00;48.60
16032;DHT22;8120;48.308;8.914;2022-07-29T08:18:05;26.10;49.50
16032;DHT22;8120;48.308;8.914;2022-07-29T08:20:35;26.40;48.00
16032;DHT22;8120;48.308;8.914;2022-07-29T08:23:06;26.50;47.90
16032;DHT22;8120;48.308;8.914;2022-07-29T08:25:35;26.80;47.30
16032;DHT22;8120;48.308;8.914;2022-07-29T08:28:06;26.10;49.40
16032;DHT22;8120;48.308;8.914;2022-07-29T08:30:34;26.80;46.80
16032;DHT22;8120;48.308;8.914;2022-07-29T08:33:02;26.10;48.20
16032;DHT22;8120;48.308;8.914;2022-07-29T08:35:31;27.00;46.90
16032;DHT22;8120;48.308;8.914;2022-07-29T08:38:02;27.40;44.40
16032;DHT22;8120;48.308;8.914;2022-07-29T08:40:30;26.50;45.20
16032;DHT22;8120;48.308;8.914;2022-07-29T08:42:59;25.50;46.50
16032;DHT22;8120;48.308;8.914;2022-07-29T08:45:28;24.70;48.20
16032;DHT22;8120;48.308;8.914;2022-07-29T08:47:57;24.80;49.60
16032;DHT22;8120;48.308;8.914;2022-07-29T08:50:24;24.70;48.40
16032;DHT22;8120;48.308;8.914;2022-07-29T08:52:54;24.90;48.60
16032;DHT22;8120;48.308;8.914;2022-07-29T08:55:25;25.30;48.10
16032;DHT22;8120;48.308;8.914;2022-07-29T08:57:54;25.20;48.30
16032;DHT22;8120;48.308;8.914;2022-07-29T09:00:24;25.50;48.10
16032;DHT22;8120;48.308;8.914;2022-07-29T09:02:57;26.00;48.30
16032;DHT22;8120;48.308;8.914;2022-07-29T09:05:26;26.50;46.40
16032;DHT22;8120;48.308;8.914;2022-07-29T09:07:56;26.40;46.00
16032;DHT22;8120;48.308;8.914;2022-07-29T09:10:24;26.40;46.00
16032;DHT22;8120;48.308;8.914;2022-07-29T09:12:53;26.50;45.70
16032;DHT22;8120;48.308;8.914;2022-07-29T09:15:21;26.20;45.80
16032;DHT22;8120;48.308;8.914;2022-07-29T09:17:49;26.40;45.80
16032;DHT22;8120;48.308;8.914;2022-07-29T09:20:19;26.30;45.80
16032;DHT22;8120;48.308;8.914;2022-07-29T09:22:48;26.10;46.20
16032;DHT22;8120;48.308;8.914;2022-07-29T09:25:34;26.10;46.30
16032;DHT22;8120;48.308;8.914;2022-07-29T09:28:06;26.30;46.60
16032;DHT22;8120;48.308;8.914;2022-07-29T09:30:35;26.70;45.20
16032;DHT22;8120;48.308;8.914;2022-07-29T09:33:03;27.10;45.20
16032;DHT22;8120;48.308;8.914;2022-07-29T09:35:31;26.90;45.60
16032;DHT22;8120;48.308;8.914;2022-07-29T09:38:10;26.90;44.60
16032;DHT22;8120;48.308;8.914;2022-07-29T09:40:40;26.40;45.70
16032;DHT22;8120;48.308;8.914;2022-07-29T09:43:12;25.70;46.30
16032;DHT22;8120;48.308;8.914;2022-07-29T09:45:40;25.60;47.10
16032;DHT22;8120;48.308;8.914;2022-07-29T09:48:16;25.50;47.70
16032;DHT22;8120;48.308;8.914;2022-07-29T09:50:45;25.60;48.20
16032;DHT22;8120;48.308;8.914;2022-07-29T09:53:30;25.70;48.30
16032;DHT22;8120;48.308;8.914;2022-07-29T09:56:01;26.00;48.10
16032;DHT22;8120;48.308;8.914;2022-07-29T09:58:29;26.00;48.10
16032;DHT22;8120;48.308;8.914;2022-07-29T10:00:57;25.90;48.30
16032;DHT22;8120;48.308;8.914;2022-07-29T10:03:25;26.00;48.40
16032;DHT22;8120;48.308;8.914;2022-07-29T10:06:06;26.00;47.60
16032;DHT22;8120;48.308;8.914;2022-07-29T10:08:35;26.10;46.80
16032;DHT22;8120;48.308;8.914;2022-07-29T10:11:11;26.20;46.50
16032;DHT22;8120;48.308;8.914;2022-07-29T10:13:40;26.30;46.70
16032;DHT22;8120;48.308;8.914;2022-07-29T10:16:08;26.20;47.40
16032;DHT22;8120;48.308;8.914;2022-07-29T10:18:38;26.40;46.40
16032;DHT22;8120;48.308;8.914;2022-07-29T10:21:06;26.80;46.50
16032;DHT22;8120;48.308;8.914;2022-07-29T10:23:36;26.80;46.20
16032;DHT22;8120;48.308;8.914;2022-07-29T10:26:15;26.90;46.00
16032;DHT22;8120;48.308;8.914;2022-07-29T10:28:44;26.70;46.00
16032;DHT22;8120;48.308;8.914;2022-07-29T10:31:19;26.60;45.20
16032;DHT22;8120;48.308;8.914;2022-07-29T10:33:57;26.50;46.20
16032;DHT22;8120;48.308;8.914;2022-07-29T10:36:42;26.80;46.00
16032;DHT22;8120;48.308;8.914;2022-07-29T10:39:22;26.50;46.40
16032;DHT22;8120;48.308;8.914;2022-07-29T10:42:14;26.00;46.70
16032;DHT22;8120;48.308;8.914;2022-07-29T10:44:46;26.10;46.90
16032;DHT22;8120;48.308;8.914;2022-07-29T10:47:21;26.50;45.60
16032;DHT22;8120;48.308;8.914;2022-07-29T10:49:56;26.10;46.60
16032;DHT22;8120;48.308;8.914;2022-07-29T10:52:54;26.00;47.70
16032;DHT22;8120;48.308;8.914;2022-07-29T10:55:31;26.00;47.40
16032;DHT22;8120;48.308;8.914;2022-07-29T10:58:13;25.80;47.10
16032;DHT22;8120;48.308;8.914;2022-07-29T11:00:44;25.70;47.30
16032;DHT22;8120;48.308;8.914;2022-07-29T11:03:43;25.50;48.60
16032;DHT22;8120;48.308;8.914;2022-07-29T11:06:18;25.40;48.60
16032;DHT22;8120;48.308;8.914;2022-07-29T11:09:17;25.30;49.70
16032;DHT22;8120;48.308;8.914;2022-07-29T11:12:00;25.40;49.10
16032;DHT22;8120;48.308;8.914;2022-07-29T11:18:06;26.40;47.50
16032;DHT22;8120;48.308;8.914;2022-07-29T11:20:44;27.40;46.00
16032;DHT22;8120;48.308;8.914;2022-07-29T11:23:26;27.50;44.50
16032;DHT22;8120;48.308;8.914;2022-07-29T11:26:17;27.70;44.70
16032;DHT22;8120;48.308;8.914;2022-07-29T11:28:54;27.40;44.00
16032;DHT22;8120;48.308;8.914;2022-07-29T11:31:37;27.30;43.80
16032;DHT22;8120;48.308;8.914;2022-07-29T11:34:21;26.80;45.30
16032;DHT22;8120;48.308;8.914;2022-07-29T11:37:15;26.70;44.90
16032;DHT22;8120;48.308;8.914;2022-07-29T11:39:46;27.00;45.10
16032;DHT22;8120;48.308;8.914;2022-07-29T11:42:44;27.20;44.30
16032;DHT22;8120;48.308;8.914;2022-07-29T11:45:15;26.80;43.40
16032;DHT22;8120;48.308;8.914;2022-07-29T11:48:04;26.80;43.90
16032;DHT22;8120;48.308;8.914;2022-07-29T11:50:54;26.60;44.70
16032;DHT22;8120;48.308;8.914;2022-07-29T11:53:24;26.70;45.00
16032;DHT22;8120;48.308;8.914;2022-07-29T11:55:59;26.90;44.90
16032;DHT22;8120;48.308;8.914;2022-07-29T11:58:29;26.60;45.70
16032;DHT22;8120;48.308;8.914;2022-07-29T12:00:57;26.60;44.90
16032;DHT22;8120;48.308;8.914;2022-07-29T12:03:31;26.60;45.10
16032;DHT22;8120;48.308;8.914;2022-07-29T12:06:20;26.50;45.30
16032;DHT22;8120;48.308;8.914;2022-07-29T12:08:48;26.40;45.70
16032;DHT22;8120;48.308;8.914;2022-07-29T12:11:17;26.40;46.00
16032;DHT22;8120;48.308;8.914;2022-07-29T12:13:48;26.40;46.60
16032;DHT22;8120;48.308;8.914;2022-07-29T12:16:16;26.70;46.80
16032;DHT22;8120;48.308;8.914;2022-07-29T12:18:56;27.00;46.00
16032;DHT22;8120;48.308;8.914;2022-07-29T12:21:26;27.00;46.00
16032;DHT22;8120;48.308;8.914;2022-07-29T12:23:56;26.80;45.00
16032;DHT22;8120;48.308;8.914;2022-07-29T12:26:35;26.60;45.00
16032;DHT22;8120;48.308;8.914;2022-07-29T12:29:03;26.50;45.60
16032;DHT22;8120;48.308;8.914;2022-07-29T12:31:41;26.40;45.90
16032;DHT22;8120;48.308;8.914;2022-07-29T12:34:11;26.40;46.30
16032;DHT22;8120;48.308;8.914;2022-07-29T12:36:42;26.30;45.30
16032;DHT22;8120;48.308;8.914;2022-07-29T12:39:11;26.50;44.00
16032;DHT22;8120;48.308;8.914;2022-07-29T12:41:39;26.20;44.20
16032;DHT22;8120;48.308;8.914;2022-07-29T12:44:07;26.50;44.00
16032;DHT22;8120;48.308;8.914;2022-07-29T12:46:35;26.90;42.80
16032;DHT22;8120;48.308;8.914;2022-07-29T12:49:05;27.10;42.30
16032;DHT22;8120;48.308;8.914;2022-07-29T12:51:36;26.70;41.90
16032;DHT22;8120;48.308;8.914;2022-07-29T12:54:08;26.70;42.10
16032;DHT22;8120;48.308;8.914;2022-07-29T12:56:37;26.60;41.50
16032;DHT22;8120;48.308;8.914;2022-07-29T12:59:18;26.50;41.40
16032;DHT22;8120;48.308;8.914;2022-07-29T13:01:47;26.60;41.00
16032;DHT22;8120;48.308;8.914;2022-07-29T13:04:26;26.80;40.60
16032;DHT22;8120;48.308;8.914;2022-07-29T13:07:01;26.90;40.00
16032;DHT22;8120;48.308;8.914;2022-07-29T13:09:40;26.20;41.20
16032;DHT22;8120;48.308;8.914;2022-07-29T13:12:10;26.10;41.00
16032;DHT22;8120;48.308;8.914;2022-07-29T13:14:39;26.10;41.10
16032;DHT22;8120;48.308;8.914;2022-07-29T13:17:09;26.10;41.30
16032;DHT22;8120;48.308;8.914;2022-07-29T13:19:39;25.90;41.10
16032;DHT22;8120;48.308;8.914;2022-07-29T13:22:08;25.50;41.30
16032;DHT22;8120;48.308;8.914;2022-07-29T13:24:47;25.60;41.60
16032;DHT22;8120;48.308;8.914;2022-07-29T13:27:15;25.60;42.00
16032;DHT22;8120;48.308;8.914;2022-07-29T13:29:44;26.10;42.20
16032;DHT22;8120;48.308;8.914;2022-07-29T13:32:12;26.10;41.60
16032;DHT22;8120;48.308;8.914;2022-07-29T13:34:40;26.30;41.80
16032;DHT22;8120;48.308;8.914;2022-07-29T13:37:08;25.90;42.10
16032;DHT22;8120;48.308;8.914;2022-07-29T13:39:36;25.70;42.70
16032;DHT22;8120;48.308;8.914;2022-07-29T13:42:06;25.80;42.20
16032;DHT22;8120;48.308;8.914;2022-07-29T13:44:36;25.60;42.10
16032;DHT22;8120;48.308;8.914;2022-07-29T13:47:05;25.60;42.60
16032;DHT22;8120;48.308;8.914;2022-07-29T13:49:32;25.90;42.10
16032;DHT22;8120;48.308;8.914;2022-07-29T13:52:00;25.90;42.00
16032;DHT22;8120;48.308;8.914;2022-07-29T13:54:29;25.60;42.20
16032;DHT22;8120;48.308;8.914;2022-07-29T13:56:56;25.40;42.30
16032;DHT22;8120;48.308;8.914;2022-07-29T13:59:26;25.40;43.20
16032;DHT22;8120;48.308;8.914;2022-07-29T14:01:54;25.90;41.60
16032;DHT22;8120;48.308;8.914;2022-07-29T14:04:22;25.80;42.10
16032;DHT22;8120;48.308;8.914;2022-07-29T14:06:51;25.90;42.00
16032;DHT22;8120;48.308;8.914;2022-07-29T14:09:19;25.80;42.40
16032;DHT22;8120;48.308;8.914;2022-07-29T14:11:47;25.70;41.90
16032;DHT22;8120;48.308;8.914;2022-07-29T14:14:16;25.80;42.30
16032;DHT22;8120;48.308;8.914;2022-07-29T14:16:46;25.80;41.70
16032;DHT22;8120;48.308;8.914;2022-07-29T14:19:18;25.70;42.60
16032;DHT22;8120;48.308;8.914;2022-07-29T14:21:45;25.40;42.90
16032;DHT22;8120;48.308;8.914;2022-07-29T14:24:15;25.20;43.30
16032;DHT22;8120;48.308;8.914;2022-07-29T14:26:49;25.20;43.40
16032;DHT22;8120;48.308;8.914;2022-07-29T14:29:17;24.90;43.80
16032;DHT22;8120;48.308;8.914;2022-07-29T14:31:46;24.90;44.10
16032;DHT22;8120;48.308;8.914;2022-07-29T14:34:14;24.60;44.50
16032;DHT22;8120;48.308;8.914;2022-07-29T14:36:42;24.50;44.60
16032;DHT22;8120;48.308;8.914;2022-07-29T14:39:10;24.50;45.00
16032;DHT22;8120;48.308;8.914;2022-07-29T14:41:38;24.30;45.30
16032;DHT22;8120;48.308;8.914;2022-07-29T14:44:06;24.30;45.30
16032;DHT22;8120;48.308;8.914;2022-07-29T14:46:34;24.40;45.80
16032;DHT22;8120;48.308;8.914;2022-07-29T14:49:03;24.30;45.50
16032;DHT22;8120;48.308;8.914;2022-07-29T14:51:35;24.40;45.70
16032;DHT22;8120;48.308;8.914;2022-07-29T14:54:03;24.50;45.00
16032;DHT22;8120;48.308;8.914;2022-07-29T14:56:30;24.30;45.70
16032;DHT22;8120;48.308;8.914;2022-07-29T14:59:03;24.40;45.70
16032;DHT22;8120;48.308;8.914;2022-07-29T15:01:31;24.70;45.10
16032;DHT22;8120;48.308;8.914;2022-07-29T15:03:59;24.80;45.10
16032;DHT22;8120;48.308;8.914;2022-07-29T15:06:28;24.70;45.20
16032;DHT22;8120;48.308;8.914;2022-07-29T15:08:56;24.90;44.60
16032;DHT22;8120;48.308;8.914;2022-07-29T15:11:24;24.80;44.70
16032;DHT22;8120;48.308;8.914;2022-07-29T15:13:52;25.00;44.50
16032;DHT22;8120;48.308;8.914;2022-07-29T15:16:20;24.90;45.20
16032;DHT22;8120;48.308;8.914;2022-07-29T15:18:48;25.00;44.70
16032;DHT22;8120;48.308;8.914;2022-07-29T15:21:16;25.10;44.70
16032;DHT22;8120;48.308;8.914;2022-07-29T15:23:46;24.90;44.90
16032;DHT22;8120;48.308;8.914;2022-07-29T15:26:13;25.10;45.30
16032;DHT22;8120;48.308;8.914;2022-07-29T15:28:41;25.10;44.70
16032;DHT22;8120;48.308;8.914;2022-07-29T15:31:09;25.10;44.60
16032;DHT22;8120;48.308;8.914;2022-07-29T15:33:37;24.90;44.70
16032;DHT22;8120;48.308;8.914;2022-07-29T15:36:06;24.90;44.70
16032;DHT22;8120;48.308;8.914;2022-07-29T15:38:34;24.70;44.50
16032;DHT22;8120;48.308;8.914;2022-07-29T15:41:08;24.80;44.10
16032;DHT22;8120;48.308;8.914;2022-07-29T15:43:36;25.00;43.90
16032;DHT22;8120;48.308;8.914;2022-07-29T15:46:05;25.10;43.20
16032;DHT22;8120;48.308;8.914;2022-07-29T15:48:50;25.00;43.20
16032;DHT22;8120;48.308;8.914;2022-07-29T15:51:18;25.10;42.00
16032;DHT22;8120;48.308;8.914;2022-07-29T15:53:46;25.00;42.80
16032;DHT22;8120;48.308;8.914;2022-07-29T15:56:20;24.80;42.90
16032;DHT22;8120;48.308;8.914;2022-07-29T15:58:48;25.00;42.70
16032;DHT22;8120;48.308;8.914;2022-07-29T16:01:16;24.90;42.30
16032;DHT22;8120;48.308;8.914;2022-07-29T16:03:45;24.90;42.10
16032;DHT22;8120;48.308;8.914;2022-07-29T16:06:14;24.60;42.80
16032;DHT22;8120;48.308;8.914;2022-07-29T16:08:42;24.50;42.80
16032;DHT22;8120;48.308;8.914;2022-07-29T16:11:10;24.50;43.20
16032;DHT22;8120;48.308;8.914;2022-07-29T16:13:39;24.30;43.20